createdAt,value
2017-10-25T00:00:03.308Z,8.30
2017-10-25T00:01:03.914Z,8.30
2017-10-25T00:02:04.523Z,8.30
2017-10-25T00:03:05.130Z,8.26
2017-10-25T00:04:05.769Z,8.24
2017-10-25T00:05:06.377Z,8.18
2017-10-25T00:06:06.991Z,8.13
2017-10-25T00:07:07.594Z,8.10
2017-10-25T00:08:08.203Z,8.16
2017-10-25T00:09:08.813Z,8.01
2017-10-25T00:10:09.427Z,8.08
2017-10-25T00:11:10.035Z,8.01
2017-10-25T00:12:10.651Z,8.06
2017-10-25T00:13:11.287Z,8.12
2017-10-25T00:14:11.926Z,8.09
2017-10-25T00:15:12.536Z,8.05
2017-10-25T00:16:13.146Z,8.05
2017-10-25T00:17:13.762Z,8.01
2017-10-25T00:18:14.370Z,8.08
2017-10-25T00:19:14.977Z,8.13
2017-10-25T00:20:15.585Z,8.10
2017-10-25T00:21:16.195Z,8.13
2017-10-25T00:22:16.803Z,8.16
2017-10-25T00:23:17.412Z,8.10
2017-10-25T00:24:18.025Z,8.26
2017-10-25T00:25:18.664Z,8.28
2017-10-25T00:26:19.301Z,8.28
2017-10-25T00:27:19.912Z,8.34
2017-10-25T00:28:20.556Z,8.31
2017-10-25T00:29:21.162Z,8.27
2017-10-25T00:30:21.770Z,8.34
2017-10-25T00:31:22.378Z,8.34
2017-10-25T00:32:22.992Z,8.37
2017-10-25T00:33:23.599Z,8.36
2017-10-25T00:34:24.212Z,8.26
2017-10-25T00:35:24.823Z,8.28
2017-10-25T00:36:25.468Z,8.16
2017-10-25T00:37:26.124Z,8.13
2017-10-25T00:38:26.735Z,8.20
2017-10-25T00:39:27.345Z,8.10
2017-10-25T00:40:27.956Z,8.12
2017-10-25T00:41:28.565Z,8.18
2017-10-25T00:42:29.174Z,8.12
2017-10-25T00:43:29.785Z,8.09
2017-10-25T00:44:30.392Z,8.13
2017-10-25T00:45:31.011Z,8.16
2017-10-25T00:46:31.614Z,8.13
2017-10-25T00:47:32.228Z,8.19
2017-10-25T00:48:32.866Z,8.10
2017-10-25T00:49:33.483Z,8.12
2017-10-25T00:50:34.095Z,8.09
2017-10-25T00:51:34.734Z,8.03
2017-10-25T00:52:35.348Z,8.05
2017-10-25T00:53:35.961Z,8.13
2017-10-25T00:54:36.570Z,8.08
2017-10-25T00:55:37.176Z,8.03
2017-10-25T00:56:37.785Z,8.00
2017-10-25T00:57:38.399Z,7.97
2017-10-25T00:58:39.005Z,8.00
2017-10-25T00:59:39.651Z,7.97
2017-10-25T01:00:40.256Z,7.95
2017-10-25T01:01:40.871Z,7.95
2017-10-25T01:02:41.476Z,7.98
2017-10-25T01:03:42.083Z,7.95
2017-10-25T01:04:42.722Z,8.05
2017-10-25T01:05:43.331Z,7.98
2017-10-25T01:06:43.969Z,8.00
2017-10-25T01:07:44.578Z,8.03
2017-10-25T01:08:45.187Z,7.97
2017-10-25T01:09:45.796Z,8.01
2017-10-25T01:10:46.404Z,8.00
2017-10-25T01:11:47.018Z,7.97
2017-10-25T01:12:47.622Z,7.95
2017-10-25T01:13:48.261Z,7.88
2017-10-25T01:14:48.869Z,8.00
2017-10-25T01:15:49.488Z,8.00
2017-10-25T01:16:50.091Z,7.91
2017-10-25T01:17:50.708Z,7.85
2017-10-25T01:18:51.343Z,7.85
2017-10-25T01:19:51.949Z,7.93
2017-10-25T01:20:52.557Z,7.83
2017-10-25T01:21:53.168Z,7.85
2017-10-25T01:22:53.778Z,7.87
2017-10-25T01:23:54.387Z,7.88
2017-10-25T01:24:55.001Z,7.87
2017-10-25T01:25:55.613Z,7.88
2017-10-25T01:26:56.219Z,7.85
2017-10-25T01:27:56.829Z,7.91
2017-10-25T01:28:57.444Z,7.93
2017-10-25T01:29:58.057Z,7.98
2017-10-25T01:30:58.669Z,8.00
2017-10-25T01:31:59.278Z,8.01
2017-10-25T01:32:59.887Z,7.98
2017-10-25T01:34:00.494Z,8.01
2017-10-25T01:35:01.134Z,7.97
2017-10-25T01:36:01.745Z,7.97
2017-10-25T01:37:02.354Z,8.01
2017-10-25T01:38:02.993Z,8.10
2017-10-25T01:39:03.615Z,8.10
2017-10-25T01:40:04.215Z,8.08
2017-10-25T01:41:04.822Z,8.08
2017-10-25T01:42:05.437Z,8.03
2017-10-25T01:43:06.039Z,8.08
2017-10-25T01:44:06.654Z,8.12
2017-10-25T01:45:07.265Z,8.13
2017-10-25T01:46:07.877Z,8.13
2017-10-25T01:47:08.517Z,8.15
2017-10-25T01:48:09.125Z,8.18
2017-10-25T01:49:09.733Z,8.23
2017-10-25T01:50:10.343Z,8.19
2017-10-25T01:51:10.957Z,8.24
2017-10-25T01:52:11.566Z,8.24
2017-10-25T01:53:12.179Z,8.24
2017-10-25T01:54:12.790Z,8.26
2017-10-25T01:55:13.433Z,8.18
2017-10-25T01:56:14.045Z,8.10
2017-10-25T01:57:14.654Z,8.16
2017-10-25T01:58:15.264Z,8.18
2017-10-25T01:59:15.871Z,8.13
2017-10-25T02:00:16.479Z,8.06
2017-10-25T02:01:17.086Z,8.12
2017-10-25T02:02:17.694Z,8.08
2017-10-25T02:03:18.304Z,8.01
2017-10-25T02:04:18.915Z,8.06
2017-10-25T02:05:19.534Z,8.12
2017-10-25T02:06:20.171Z,8.13
2017-10-25T02:07:20.781Z,8.06
2017-10-25T02:08:21.390Z,8.06
2017-10-25T02:09:21.998Z,8.00
2017-10-25T02:10:22.607Z,8.10
2017-10-25T02:11:23.222Z,8.10
2017-10-25T02:12:23.833Z,7.97
2017-10-25T02:13:24.444Z,8.03
2017-10-25T02:14:25.049Z,8.01
2017-10-25T02:15:25.694Z,7.97
2017-10-25T02:16:26.312Z,8.00
2017-10-25T02:17:26.914Z,7.93
2017-10-25T02:18:27.555Z,8.01
2017-10-25T02:19:28.169Z,7.97
2017-10-25T02:20:28.775Z,7.87
2017-10-25T02:21:29.386Z,7.83
2017-10-25T02:22:29.997Z,7.90
2017-10-25T02:23:30.638Z,7.88
2017-10-25T02:24:31.249Z,7.94
2017-10-25T02:25:31.864Z,7.88
2017-10-25T02:26:32.470Z,7.88
2017-10-25T02:27:33.084Z,7.90
2017-10-25T02:28:33.728Z,7.85
2017-10-25T02:29:34.334Z,8.05
2017-10-25T02:30:34.950Z,7.98
2017-10-25T02:31:35.586Z,7.98
2017-10-25T02:32:36.194Z,8.06
2017-10-25T02:33:36.803Z,8.08
2017-10-25T02:34:37.412Z,8.05
2017-10-25T02:35:38.026Z,8.12
2017-10-25T02:36:38.640Z,8.09
2017-10-25T02:37:39.280Z,8.18
2017-10-25T02:38:39.885Z,8.15
2017-10-25T02:39:40.526Z,8.12
2017-10-25T02:40:41.134Z,8.15
2017-10-25T02:41:41.742Z,8.16
2017-10-25T02:42:42.351Z,8.18
2017-10-25T02:43:42.960Z,8.20
2017-10-25T02:44:43.568Z,8.23
2017-10-25T02:45:44.213Z,8.28
2017-10-25T02:46:44.817Z,8.30
2017-10-25T02:47:45.430Z,8.36
2017-10-25T02:48:46.045Z,8.26
2017-10-25T02:49:46.654Z,8.30
2017-10-25T02:50:47.259Z,8.36
2017-10-25T02:51:47.872Z,8.28
2017-10-25T02:52:48.484Z,8.36
2017-10-25T02:53:49.092Z,8.36
2017-10-25T02:54:49.701Z,8.36
2017-10-25T02:55:50.309Z,8.33
2017-10-25T02:56:50.917Z,8.41
2017-10-25T02:57:51.526Z,8.45
2017-10-25T02:58:52.137Z,8.44
2017-10-25T02:59:52.748Z,8.37
2017-10-25T03:00:53.387Z,8.36
2017-10-25T03:01:54.002Z,8.46
2017-10-25T03:02:54.620Z,8.49
2017-10-25T03:03:55.229Z,8.56
2017-10-25T03:04:55.838Z,8.49
2017-10-25T03:05:56.449Z,8.51
2017-10-25T03:06:57.057Z,8.49
2017-10-25T03:07:57.665Z,8.53
2017-10-25T03:08:58.275Z,8.56
2017-10-25T03:09:58.888Z,8.53
2017-10-25T03:10:59.495Z,8.61
2017-10-25T03:12:00.105Z,8.56
2017-10-25T03:13:00.750Z,8.61
2017-10-25T03:14:01.364Z,8.53
2017-10-25T03:15:01.972Z,8.52
2017-10-25T03:16:02.587Z,8.55
2017-10-25T03:17:03.229Z,8.55
2017-10-25T03:18:03.833Z,8.55
2017-10-25T03:19:04.442Z,8.55
2017-10-25T03:20:05.055Z,8.53
2017-10-25T03:21:05.669Z,8.64
2017-10-25T03:22:06.270Z,8.58
2017-10-25T03:23:06.878Z,8.60
2017-10-25T03:24:07.489Z,8.64
2017-10-25T03:25:08.096Z,8.69
2017-10-25T03:26:08.706Z,8.64
2017-10-25T03:27:09.318Z,8.63
2017-10-25T03:28:09.930Z,8.70
2017-10-25T03:29:10.537Z,8.63
2017-10-25T03:30:11.157Z,8.61
2017-10-25T03:31:11.754Z,8.71
2017-10-25T03:32:12.367Z,8.61
2017-10-25T03:33:12.975Z,8.74
2017-10-25T03:34:13.592Z,8.73
2017-10-25T03:35:14.228Z,8.78
2017-10-25T03:36:14.843Z,8.73
2017-10-25T03:37:15.450Z,8.71
2017-10-25T03:38:16.057Z,8.71
2017-10-25T03:39:16.667Z,8.84
2017-10-25T03:40:17.306Z,8.87
2017-10-25T03:41:17.916Z,8.84
2017-10-25T03:42:18.529Z,8.94
2017-10-25T03:43:19.135Z,8.95
2017-10-25T03:44:19.745Z,8.89
2017-10-25T03:45:20.352Z,8.88
2017-10-25T03:46:20.963Z,8.89
2017-10-25T03:47:21.573Z,8.95
2017-10-25T03:48:22.183Z,8.99
2017-10-25T03:49:22.793Z,8.92
2017-10-25T03:50:23.401Z,8.91
2017-10-25T03:51:24.018Z,8.99
2017-10-25T03:52:24.629Z,9.03
2017-10-25T03:53:25.236Z,8.99
2017-10-25T03:54:25.845Z,9.13
2017-10-25T03:55:26.454Z,9.14
2017-10-25T03:56:27.062Z,9.10
2017-10-25T03:57:27.677Z,9.06
2017-10-25T03:58:28.285Z,9.04
2017-10-25T03:59:28.900Z,9.03
2017-10-25T04:00:29.507Z,8.92
2017-10-25T04:01:30.116Z,8.92
2017-10-25T04:02:30.726Z,8.95
2017-10-25T04:03:31.337Z,8.79
2017-10-25T04:04:31.946Z,8.82
2017-10-25T04:05:32.552Z,8.78
2017-10-25T04:06:33.193Z,8.70
2017-10-25T04:07:33.804Z,8.71
2017-10-25T04:08:34.411Z,8.67
2017-10-25T04:09:35.030Z,8.69
2017-10-25T04:10:35.631Z,8.67
2017-10-25T04:11:36.241Z,8.66
2017-10-25T04:12:36.849Z,8.67
2017-10-25T04:13:37.465Z,8.71
2017-10-25T04:14:38.070Z,8.81
2017-10-25T04:15:38.681Z,8.78
2017-10-25T04:16:39.290Z,8.71
2017-10-25T04:17:39.898Z,8.71
2017-10-25T04:18:40.513Z,8.82
2017-10-25T04:19:41.152Z,8.79
2017-10-25T04:20:41.770Z,8.79
2017-10-25T04:21:42.402Z,8.84
2017-10-25T04:22:43.011Z,8.81
2017-10-25T04:23:43.626Z,8.82
2017-10-25T04:24:44.238Z,8.84
2017-10-25T04:25:44.843Z,8.87
2017-10-25T04:26:45.485Z,8.81
2017-10-25T04:27:46.097Z,8.84
2017-10-25T04:28:46.703Z,8.78
2017-10-25T04:29:47.312Z,8.84
2017-10-25T04:30:47.922Z,8.82
2017-10-25T04:31:48.534Z,8.87
2017-10-25T04:32:49.146Z,8.92
2017-10-25T04:33:49.759Z,8.87
2017-10-25T04:34:50.397Z,8.87
2017-10-25T04:35:51.013Z,8.95
2017-10-25T04:36:51.627Z,8.94
2017-10-25T04:37:52.234Z,8.94
2017-10-25T04:38:52.842Z,9.02
2017-10-25T04:39:53.456Z,8.94
2017-10-25T04:40:54.071Z,8.89
2017-10-25T04:41:54.677Z,8.97
2017-10-25T04:42:55.290Z,9.00
2017-10-25T04:43:55.929Z,8.92
2017-10-25T04:44:56.538Z,9.00
2017-10-25T04:45:57.180Z,8.95
2017-10-25T04:46:57.788Z,8.99
2017-10-25T04:47:58.402Z,9.11
2017-10-25T04:48:59.009Z,9.06
2017-10-25T04:49:59.630Z,9.06
2017-10-25T04:51:00.233Z,9.06
2017-10-25T04:52:00.845Z,9.06
2017-10-25T04:53:01.484Z,9.10
2017-10-25T04:54:02.101Z,9.10
2017-10-25T04:55:02.712Z,9.10
2017-10-25T04:56:03.321Z,9.04
2017-10-25T04:57:03.935Z,9.18
2017-10-25T04:58:04.540Z,9.08
2017-10-25T04:59:05.150Z,9.08
2017-10-25T05:00:05.759Z,9.14
2017-10-25T05:01:06.372Z,9.26
2017-10-25T05:02:06.977Z,9.31
2017-10-25T05:03:07.588Z,9.34
2017-10-25T05:04:08.199Z,9.29
2017-10-25T05:05:08.810Z,9.29
2017-10-25T05:06:09.419Z,9.31
2017-10-25T05:07:10.028Z,9.28
2017-10-25T05:08:10.639Z,9.29
2017-10-25T05:09:11.248Z,9.31
2017-10-25T05:10:11.858Z,9.31
2017-10-25T05:11:12.475Z,9.31
2017-10-25T05:12:13.080Z,9.21
2017-10-25T05:13:13.688Z,9.23
2017-10-25T05:14:14.302Z,9.25
2017-10-25T05:15:14.914Z,9.26
2017-10-25T05:16:15.538Z,9.25
2017-10-25T05:17:16.132Z,9.25
2017-10-25T05:18:16.741Z,9.25
2017-10-25T05:19:17.351Z,9.21
2017-10-25T05:20:17.965Z,9.22
2017-10-25T05:21:18.570Z,9.23
2017-10-25T05:22:19.185Z,9.11
2017-10-25T05:23:19.791Z,9.21
2017-10-25T05:24:20.399Z,9.21
2017-10-25T05:25:21.008Z,9.28
2017-10-25T05:26:21.618Z,9.22
2017-10-25T05:27:22.227Z,9.25
2017-10-25T05:28:22.845Z,9.21
2017-10-25T05:29:23.449Z,9.26
2017-10-25T05:30:24.079Z,9.23
2017-10-25T05:31:24.668Z,9.19
2017-10-25T05:32:25.278Z,9.16
2017-10-25T05:33:25.887Z,9.22
2017-10-25T05:34:26.496Z,9.22
2017-10-25T05:35:27.110Z,9.19
2017-10-25T05:36:27.723Z,9.25
2017-10-25T05:37:28.327Z,9.23
2017-10-25T05:38:28.939Z,9.28
2017-10-25T05:39:29.551Z,9.23
2017-10-25T05:40:30.169Z,9.26
2017-10-25T05:41:30.770Z,9.25
2017-10-25T05:42:31.385Z,9.25
2017-10-25T05:43:31.992Z,9.28
2017-10-25T05:44:32.606Z,9.29
2017-10-25T05:45:33.213Z,9.29
2017-10-25T05:46:33.822Z,9.32
2017-10-25T05:47:34.430Z,9.25
2017-10-25T05:48:35.038Z,9.32
2017-10-25T05:49:35.648Z,9.34
2017-10-25T05:50:36.288Z,9.37
2017-10-25T05:51:36.898Z,9.32
2017-10-25T05:52:37.506Z,9.34
2017-10-25T05:53:38.115Z,9.31
2017-10-25T05:54:38.730Z,9.25
2017-10-25T05:55:39.338Z,9.25
2017-10-25T05:56:39.947Z,9.31
2017-10-25T05:57:40.559Z,9.25
2017-10-25T05:58:41.167Z,9.29
2017-10-25T05:59:41.775Z,9.26
2017-10-25T06:00:42.393Z,9.29
2017-10-25T06:01:42.997Z,9.31
2017-10-25T06:02:43.604Z,9.32
2017-10-25T06:03:44.214Z,9.31
2017-10-25T06:04:44.822Z,9.34
2017-10-25T06:05:45.465Z,9.25
2017-10-25T06:06:46.072Z,9.32
2017-10-25T06:07:46.687Z,9.29
2017-10-25T06:08:47.293Z,9.25
2017-10-25T06:09:47.906Z,9.21
2017-10-25T06:10:48.516Z,9.25
2017-10-25T06:11:49.123Z,9.19
2017-10-25T06:12:49.742Z,9.26
2017-10-25T06:13:50.382Z,9.19
2017-10-25T06:14:50.991Z,9.26
2017-10-25T06:15:51.600Z,9.25
2017-10-25T06:16:52.215Z,9.16
2017-10-25T06:17:52.823Z,9.26
2017-10-25T06:18:53.441Z,9.36
2017-10-25T06:19:54.045Z,9.39
2017-10-25T06:20:54.656Z,9.43
2017-10-25T06:21:55.265Z,9.47
2017-10-25T06:22:55.878Z,9.44
2017-10-25T06:23:56.492Z,9.58
2017-10-25T06:24:57.102Z,9.64
2017-10-25T06:25:57.718Z,9.55
2017-10-25T06:26:58.330Z,9.65
2017-10-25T06:27:58.970Z,9.68
2017-10-25T06:28:59.581Z,9.66
2017-10-25T06:30:00.191Z,9.74
2017-10-25T06:31:00.809Z,9.79
2017-10-25T06:32:01.446Z,9.76
2017-10-25T06:33:02.056Z,9.80
2017-10-25T06:34:02.674Z,9.74
2017-10-25T06:35:03.284Z,9.80
2017-10-25T06:36:03.898Z,9.80
2017-10-25T06:37:04.546Z,9.72
2017-10-25T06:38:05.161Z,9.86
2017-10-25T06:39:05.775Z,9.86
2017-10-25T06:40:06.386Z,9.86
2017-10-25T06:41:07.019Z,9.92
2017-10-25T06:42:07.631Z,9.95
2017-10-25T06:43:08.242Z,9.95
2017-10-25T06:44:08.857Z,9.94
2017-10-25T06:45:09.469Z,9.94
2017-10-25T06:46:10.076Z,9.95
2017-10-25T06:47:10.693Z,9.92
2017-10-25T06:48:11.310Z,9.92
2017-10-25T06:49:11.924Z,9.89
2017-10-25T06:50:12.533Z,9.95
2017-10-25T06:51:13.141Z,9.91
2017-10-25T06:52:13.756Z,9.92
2017-10-25T06:53:14.363Z,9.87
2017-10-25T06:54:14.984Z,9.94
2017-10-25T06:55:15.589Z,9.98
2017-10-25T06:56:16.201Z,10.10
2017-10-25T06:57:16.812Z,10.19
2017-10-25T06:58:17.425Z,10.17
2017-10-25T06:59:18.036Z,10.17
2017-10-25T07:00:18.652Z,10.30
2017-10-25T07:01:19.266Z,10.34
2017-10-25T07:02:19.882Z,10.37
2017-10-25T07:03:20.489Z,10.48
2017-10-25T07:04:21.100Z,10.49
2017-10-25T07:05:21.712Z,10.46
2017-10-25T07:06:22.335Z,10.57
2017-10-25T07:07:22.946Z,10.54
2017-10-25T07:08:23.567Z,10.56
2017-10-25T07:09:24.209Z,10.59
2017-10-25T07:10:24.823Z,10.59
2017-10-25T07:11:25.434Z,10.59
2017-10-25T07:12:26.047Z,10.67
2017-10-25T07:13:26.658Z,10.56
2017-10-25T07:14:27.270Z,10.59
2017-10-25T07:15:27.886Z,10.68
2017-10-25T07:16:28.493Z,10.69
2017-10-25T07:17:29.106Z,10.60
2017-10-25T07:18:29.718Z,10.60
2017-10-25T07:19:30.331Z,10.63
2017-10-25T07:20:30.948Z,10.68
2017-10-25T07:21:31.558Z,10.68
2017-10-25T07:22:32.178Z,10.75
2017-10-25T07:23:32.820Z,10.68
2017-10-25T07:24:33.461Z,10.74
2017-10-25T07:25:34.071Z,10.69
2017-10-25T07:26:34.690Z,10.75
2017-10-25T07:27:35.298Z,10.69
2017-10-25T07:28:35.913Z,10.74
2017-10-25T07:29:36.524Z,10.74
2017-10-25T07:30:37.169Z,10.72
2017-10-25T07:31:37.782Z,10.68
2017-10-25T07:32:38.399Z,10.71
2017-10-25T07:33:39.043Z,10.59
2017-10-25T07:34:39.657Z,10.63
2017-10-25T07:35:40.267Z,10.53
2017-10-25T07:36:40.907Z,10.48
2017-10-25T07:37:41.551Z,10.34
2017-10-25T07:38:42.161Z,10.40
2017-10-25T07:39:42.775Z,10.25
2017-10-25T07:40:43.387Z,10.19
2017-10-25T07:41:43.999Z,10.19
2017-10-25T07:42:44.616Z,10.16
2017-10-25T07:43:45.226Z,10.26
2017-10-25T07:44:45.839Z,10.23
2017-10-25T07:45:46.461Z,10.17
2017-10-25T07:46:47.068Z,10.23
2017-10-25T07:47:47.689Z,10.28
2017-10-25T07:48:48.301Z,10.34
2017-10-25T07:49:48.917Z,10.30
2017-10-25T07:50:49.532Z,10.42
2017-10-25T07:51:50.144Z,10.57
2017-10-25T07:52:50.760Z,10.69
2017-10-25T07:53:51.374Z,10.72
2017-10-25T07:54:51.988Z,10.79
2017-10-25T07:55:52.604Z,10.97
2017-10-25T07:56:53.219Z,10.99
2017-10-25T07:57:53.832Z,11.08
2017-10-25T07:58:54.449Z,11.19
2017-10-25T07:59:55.062Z,11.33
2017-10-25T08:00:55.676Z,11.32
2017-10-25T08:01:56.291Z,11.48
2017-10-25T08:02:56.907Z,11.48
2017-10-25T08:03:57.522Z,11.57
2017-10-25T08:04:58.141Z,11.72
2017-10-25T08:05:58.752Z,11.87
2017-10-25T08:06:59.376Z,12.06
2017-10-25T08:07:59.986Z,12.07
2017-10-25T08:09:00.602Z,12.15
2017-10-25T08:10:01.215Z,12.31
2017-10-25T08:11:01.834Z,12.28
2017-10-25T08:12:02.452Z,12.24
2017-10-25T08:13:03.063Z,12.27
2017-10-25T08:14:03.695Z,12.27
2017-10-25T08:15:04.305Z,12.42
2017-10-25T08:16:04.916Z,12.32
2017-10-25T08:17:05.543Z,12.37
2017-10-25T08:18:06.199Z,12.45
2017-10-25T08:19:06.831Z,12.45
2017-10-25T08:20:07.473Z,12.49
2017-10-25T08:21:08.092Z,12.62
2017-10-25T08:22:08.781Z,12.70
2017-10-25T08:23:09.412Z,12.73
2017-10-25T08:24:10.049Z,12.80
2017-10-25T08:25:10.685Z,12.86
2017-10-25T08:26:11.284Z,12.93
2017-10-25T08:27:11.947Z,13.05
2017-10-25T08:28:12.564Z,13.01
2017-10-25T08:29:13.179Z,13.19
2017-10-25T08:30:13.795Z,13.13
2017-10-25T08:31:14.414Z,13.37
2017-10-25T08:32:15.025Z,13.33
2017-10-25T08:33:15.648Z,13.42
2017-10-25T08:34:16.266Z,13.50
2017-10-25T08:35:16.885Z,13.59
2017-10-25T08:36:17.547Z,13.59
2017-10-25T08:37:18.153Z,13.72
2017-10-25T08:38:18.771Z,13.74
2017-10-25T08:39:19.385Z,13.78
2017-10-25T08:40:20.014Z,13.75
2017-10-25T08:41:20.653Z,13.71
2017-10-25T08:42:21.276Z,13.77
2017-10-25T08:43:21.926Z,13.85
2017-10-25T08:44:22.571Z,13.83
2017-10-25T08:45:23.188Z,13.92
2017-10-25T08:46:23.834Z,13.93
2017-10-25T08:47:24.453Z,14.03
2017-10-25T08:48:25.107Z,14.07
2017-10-25T08:49:25.720Z,14.12
2017-10-25T08:50:26.342Z,14.08
2017-10-25T08:51:26.954Z,14.05
2017-10-25T08:52:27.575Z,14.08
2017-10-25T08:53:28.194Z,14.11
2017-10-25T08:54:28.812Z,14.12
2017-10-25T08:55:29.426Z,14.28
2017-10-25T08:56:30.041Z,14.18
2017-10-25T08:57:30.657Z,14.30
2017-10-25T08:58:31.275Z,14.44
2017-10-25T08:59:31.892Z,14.48
2017-10-25T09:00:32.512Z,14.51
2017-10-25T09:01:33.173Z,14.58
2017-10-25T09:02:33.895Z,14.59
2017-10-25T09:03:34.565Z,14.66
2017-10-25T09:04:35.228Z,14.69
2017-10-25T09:05:35.931Z,14.81
2017-10-25T09:06:36.594Z,14.88
2017-10-25T09:07:37.256Z,15.04
2017-10-25T09:08:37.907Z,15.07
2017-10-25T09:09:38.638Z,15.07
2017-10-25T09:10:39.303Z,15.10
2017-10-25T09:11:39.976Z,15.09
2017-10-25T09:12:40.635Z,15.11
2017-10-25T09:13:41.296Z,15.14
2017-10-25T09:14:41.949Z,15.11
2017-10-25T09:15:42.574Z,15.22
2017-10-25T09:16:43.190Z,15.29
2017-10-25T09:17:43.838Z,15.47
2017-10-25T09:18:44.457Z,15.55
2017-10-25T09:19:45.073Z,15.75
2017-10-25T09:20:45.694Z,15.72
2017-10-25T09:21:46.322Z,15.72
2017-10-25T09:22:46.969Z,15.52
2017-10-25T09:23:47.583Z,15.47
2017-10-25T09:24:48.201Z,15.43
2017-10-25T09:25:48.816Z,15.47
2017-10-25T09:26:49.438Z,15.55
2017-10-25T09:27:50.054Z,15.52
2017-10-25T09:28:50.670Z,15.75
2017-10-25T09:29:51.321Z,15.73
2017-10-25T09:30:51.935Z,15.95
2017-10-25T09:31:52.554Z,16.09
2017-10-25T09:32:53.169Z,16.21
2017-10-25T09:33:53.787Z,16.41
2017-10-25T09:34:54.410Z,16.50
2017-10-25T09:35:55.025Z,16.47
2017-10-25T09:36:55.642Z,16.68
2017-10-25T09:37:56.260Z,16.84
2017-10-25T09:38:56.886Z,16.97
2017-10-25T09:39:57.496Z,17.08
2017-10-25T09:40:58.116Z,17.06
2017-10-25T09:41:58.734Z,17.08
2017-10-25T09:42:59.360Z,17.04
2017-10-25T09:43:59.969Z,17.06
2017-10-25T09:45:00.617Z,17.05
2017-10-25T09:46:01.236Z,16.94
2017-10-25T09:47:01.854Z,17.06
2017-10-25T09:48:02.473Z,17.11
2017-10-25T09:49:03.092Z,17.27
2017-10-25T09:50:03.711Z,17.36
2017-10-25T09:51:04.329Z,17.49
2017-10-25T09:52:04.946Z,17.51
2017-10-25T09:53:05.572Z,17.38
2017-10-25T09:54:06.187Z,17.29
2017-10-25T09:55:06.807Z,17.30
2017-10-25T09:56:07.424Z,17.30
2017-10-25T09:57:08.041Z,17.44
2017-10-25T09:58:08.664Z,17.49
2017-10-25T09:59:09.282Z,17.48
2017-10-25T10:00:09.899Z,17.51
2017-10-25T10:01:10.518Z,17.49
2017-10-25T10:02:11.191Z,17.54
2017-10-25T10:03:11.828Z,17.54
2017-10-25T10:04:12.483Z,17.57
2017-10-25T10:05:13.149Z,17.48
2017-10-25T10:06:13.809Z,17.63
2017-10-25T10:07:14.478Z,17.70
2017-10-25T10:08:15.146Z,17.82
2017-10-25T10:09:15.817Z,17.89
2017-10-25T10:10:16.549Z,17.86
2017-10-25T10:11:17.201Z,17.82
2017-10-25T10:12:17.878Z,17.71
2017-10-25T10:13:18.544Z,17.65
2017-10-25T10:14:19.208Z,17.68
2017-10-25T10:15:19.875Z,17.71
2017-10-25T10:16:20.534Z,17.72
2017-10-25T10:17:21.183Z,17.72
2017-10-25T10:18:21.833Z,17.71
2017-10-25T10:19:22.498Z,17.79
2017-10-25T10:20:23.153Z,17.87
2017-10-25T10:21:23.814Z,17.90
2017-10-25T10:22:24.491Z,17.94
2017-10-25T10:23:25.160Z,18.04
2017-10-25T10:24:25.910Z,18.15
2017-10-25T10:25:26.559Z,18.16
2017-10-25T10:26:27.226Z,18.10
2017-10-25T10:27:27.895Z,18.23
2017-10-25T10:28:28.548Z,18.35
2017-10-25T10:29:29.223Z,18.40
2017-10-25T10:30:29.886Z,18.53
2017-10-25T10:31:30.564Z,18.44
2017-10-25T10:32:31.232Z,18.53
2017-10-25T10:33:31.891Z,18.47
2017-10-25T10:34:32.550Z,18.53
2017-10-25T10:35:33.219Z,18.52
2017-10-25T10:36:33.889Z,18.55
2017-10-25T10:37:34.551Z,18.47
2017-10-25T10:38:35.222Z,18.50
2017-10-25T10:39:35.905Z,18.63
2017-10-25T10:40:36.580Z,18.59
2017-10-25T10:41:37.244Z,18.56
2017-10-25T10:42:37.920Z,18.55
2017-10-25T10:43:38.693Z,18.56
2017-10-25T10:44:39.349Z,18.59
2017-10-25T10:45:40.007Z,18.59
2017-10-25T10:46:40.676Z,18.73
2017-10-25T10:47:41.345Z,18.93
2017-10-25T10:48:42.012Z,18.92
2017-10-25T10:49:42.649Z,19.02
2017-10-25T10:50:43.312Z,19.14
2017-10-25T10:51:43.950Z,19.21
2017-10-25T10:52:44.610Z,19.31
2017-10-25T10:53:45.340Z,19.33
2017-10-25T10:54:46.019Z,19.36
2017-10-25T10:55:46.671Z,19.36
2017-10-25T10:56:47.345Z,19.37
2017-10-25T10:57:48.080Z,19.24
2017-10-25T10:58:48.729Z,19.37
2017-10-25T10:59:49.372Z,19.48
2017-10-25T11:00:50.041Z,19.64
2017-10-25T11:01:50.659Z,19.84
2017-10-25T11:02:51.293Z,19.89
2017-10-25T11:03:51.927Z,19.94
2017-10-25T11:04:52.544Z,19.88
2017-10-25T11:05:53.182Z,19.89
2017-10-25T11:06:53.853Z,20.06
2017-10-25T11:07:54.503Z,20.16
2017-10-25T11:08:55.138Z,20.21
2017-10-25T11:09:55.777Z,20.21
2017-10-25T11:10:56.402Z,20.29
2017-10-25T11:11:57.078Z,20.22
2017-10-25T11:12:57.737Z,20.22
2017-10-25T11:13:58.374Z,20.32
2017-10-25T11:14:59.020Z,20.34
2017-10-25T11:15:59.657Z,20.40
2017-10-25T11:17:00.307Z,20.55
2017-10-25T11:18:00.947Z,20.62
2017-10-25T11:19:01.597Z,20.72
2017-10-25T11:20:02.226Z,20.72
2017-10-25T11:21:02.886Z,20.70
2017-10-25T11:22:03.527Z,20.69
2017-10-25T11:23:04.167Z,20.77
2017-10-25T11:24:04.812Z,20.78
2017-10-25T11:25:05.505Z,20.74
2017-10-25T11:26:06.154Z,20.74
2017-10-25T11:27:06.794Z,20.87
2017-10-25T11:28:07.440Z,20.88
2017-10-25T11:29:08.083Z,20.92
2017-10-25T11:30:08.728Z,21.00
2017-10-25T11:31:09.364Z,20.84
2017-10-25T11:32:10.019Z,21.00
2017-10-25T11:33:10.655Z,21.07
2017-10-25T11:34:11.294Z,21.09
2017-10-25T11:35:12.000Z,21.24
2017-10-25T11:36:12.632Z,21.24
2017-10-25T11:37:13.272Z,21.21
2017-10-25T11:38:13.915Z,21.17
2017-10-25T11:39:14.602Z,21.09
2017-10-25T11:40:15.237Z,21.00
2017-10-25T11:41:15.867Z,21.05
2017-10-25T11:42:16.491Z,21.03
2017-10-25T11:43:17.140Z,21.21
2017-10-25T11:44:17.770Z,21.14
2017-10-25T11:45:18.400Z,21.00
2017-10-25T11:46:19.035Z,21.00
2017-10-25T11:47:19.683Z,21.05
2017-10-25T11:48:20.343Z,21.06
2017-10-25T11:49:20.988Z,20.96
2017-10-25T11:50:21.636Z,21.03
2017-10-25T11:51:22.289Z,21.05
2017-10-25T11:52:22.937Z,21.07
2017-10-25T11:53:23.579Z,21.00
2017-10-25T11:54:24.232Z,21.03
2017-10-25T11:55:24.891Z,20.99
2017-10-25T11:56:25.516Z,21.02
2017-10-25T11:57:26.157Z,21.00
2017-10-25T11:58:26.810Z,20.96
2017-10-25T11:59:27.455Z,21.03
2017-10-25T12:00:28.109Z,21.03
2017-10-25T12:01:28.742Z,20.95
2017-10-25T12:02:29.388Z,21.03
2017-10-25T12:03:30.038Z,21.07
2017-10-25T12:04:30.690Z,21.02
2017-10-25T12:05:31.339Z,20.85
2017-10-25T12:06:31.994Z,20.87
2017-10-25T12:07:32.642Z,20.78
2017-10-25T12:08:33.291Z,20.70
2017-10-25T12:09:33.928Z,20.60
2017-10-25T12:10:34.588Z,20.43
2017-10-25T12:11:35.237Z,20.43
2017-10-25T12:12:35.884Z,20.56
2017-10-25T12:13:36.571Z,20.75
2017-10-25T12:14:37.234Z,20.84
2017-10-25T12:15:37.882Z,20.97
2017-10-25T12:16:38.525Z,21.05
2017-10-25T12:17:39.172Z,21.06
2017-10-25T12:18:39.828Z,21.12
2017-10-25T12:19:40.474Z,21.05
2017-10-25T12:20:41.109Z,20.90
2017-10-25T12:21:41.761Z,20.74
2017-10-25T12:22:42.394Z,20.81
2017-10-25T12:23:43.053Z,20.75
2017-10-25T12:24:43.686Z,20.75
2017-10-25T12:25:44.321Z,20.75
2017-10-25T12:26:44.972Z,20.80
2017-10-25T12:27:45.626Z,20.80
2017-10-25T12:28:46.277Z,20.74
2017-10-25T12:29:46.924Z,20.72
2017-10-25T12:30:47.578Z,20.74
2017-10-25T12:31:48.228Z,20.63
2017-10-25T12:32:48.862Z,20.63
2017-10-25T12:33:49.517Z,20.77
2017-10-25T12:34:50.161Z,20.80
2017-10-25T12:35:50.819Z,20.90
2017-10-25T12:36:51.466Z,20.72
2017-10-25T12:37:52.177Z,20.78
2017-10-25T12:38:52.840Z,20.67
2017-10-25T12:39:53.524Z,20.67
2017-10-25T12:40:54.165Z,20.74
2017-10-25T12:41:54.823Z,20.81
2017-10-25T12:42:55.477Z,20.72
2017-10-25T12:43:56.126Z,20.80
2017-10-25T12:44:56.768Z,20.81
2017-10-25T12:45:57.422Z,20.60
2017-10-25T12:46:58.066Z,20.48
2017-10-25T12:47:58.726Z,20.21
2017-10-25T12:48:59.354Z,20.16
2017-10-25T12:50:00.001Z,20.25
2017-10-25T12:51:00.664Z,20.37
2017-10-25T12:52:01.305Z,20.44
2017-10-25T12:53:01.960Z,20.56
2017-10-25T12:54:02.602Z,20.77
2017-10-25T12:55:03.252Z,20.85
2017-10-25T12:56:03.960Z,20.99
2017-10-25T12:57:04.608Z,21.02
2017-10-25T12:58:05.261Z,21.02
2017-10-25T12:59:05.905Z,21.05
2017-10-25T13:00:06.564Z,21.03
2017-10-25T13:01:07.214Z,21.15
2017-10-25T13:02:07.847Z,21.22
2017-10-25T13:03:08.505Z,21.24
2017-10-25T13:04:09.153Z,21.12
2017-10-25T13:05:09.801Z,20.97
2017-10-25T13:06:10.441Z,21.00
2017-10-25T13:07:11.140Z,21.00
2017-10-25T13:08:11.797Z,21.20
2017-10-25T13:09:12.492Z,21.22
2017-10-25T13:10:13.177Z,21.33
2017-10-25T13:11:13.810Z,21.42
2017-10-25T13:12:14.436Z,21.50
2017-10-25T13:13:15.060Z,21.54